createdAt,value
2023-05-24T00:00:17.201Z,4.10
2023-05-24T00:01:16.159Z,4.17
2023-05-24T00:02:17.173Z,4.13
2023-05-24T00:03:17.300Z,4.09
2023-05-24T00:04:17.246Z,4.09
2023-05-24T00:05:16.219Z,4.07
2023-05-24T00:06:17.231Z,4.02
2023-05-24T00:07:16.224Z,3.97
2023-05-24T00:08:16.243Z,4.02
2023-05-24T00:09:17.241Z,4.01
2023-05-24T00:10:17.244Z,3.92
2023-05-24T00:11:17.261Z,3.98
2023-05-24T00:12:17.279Z,3.99
2023-05-24T00:13:16.296Z,3.94
2023-05-24T00:14:17.293Z,3.89
2023-05-24T00:15:17.309Z,3.88
2023-05-24T00:16:17.374Z,3.90
2023-05-24T00:17:17.339Z,3.83
2023-05-24T00:18:17.356Z,3.78
2023-05-24T00:19:16.344Z,3.83
2023-05-24T00:20:17.510Z,3.82
2023-05-24T00:21:17.358Z,3.80
2023-05-24T00:22:17.386Z,3.73
2023-05-24T00:23:17.387Z,3.70
2023-05-24T00:24:17.531Z,3.76
2023-05-24T00:25:17.431Z,3.66
2023-05-24T00:26:17.409Z,3.65
2023-05-24T00:27:17.410Z,3.64
2023-05-24T00:28:17.429Z,3.74
2023-05-24T00:29:17.440Z,3.67
2023-05-24T00:30:17.440Z,3.61
2023-05-24T00:31:17.513Z,3.60
2023-05-24T00:32:16.466Z,3.54
2023-05-24T00:33:17.488Z,3.62
2023-05-24T00:34:17.486Z,3.59
2023-05-24T00:35:16.478Z,3.52
2023-05-24T00:36:17.487Z,3.55
2023-05-24T00:37:17.486Z,3.57
2023-05-24T00:38:16.540Z,3.54
2023-05-24T00:39:17.520Z,3.52
2023-05-24T00:40:16.516Z,3.49
2023-05-24T00:41:17.525Z,3.54
2023-05-24T00:42:17.540Z,3.42
2023-05-24T00:43:16.561Z,3.45
2023-05-24T00:44:17.565Z,3.42
2023-05-24T00:45:17.591Z,3.41
2023-05-24T00:46:17.610Z,3.40
2023-05-24T00:47:16.605Z,3.41
2023-05-24T00:48:17.612Z,3.39
2023-05-24T00:49:17.613Z,3.35
2023-05-24T00:50:16.627Z,3.35
2023-05-24T00:51:16.651Z,3.42
2023-05-24T00:52:17.656Z,3.37
2023-05-24T00:53:17.674Z,3.27
2023-05-24T00:54:16.708Z,3.30
2023-05-24T00:55:16.690Z,3.24
2023-05-24T00:56:17.699Z,3.28
2023-05-24T00:57:16.713Z,3.24
2023-05-24T00:58:16.726Z,3.24
2023-05-24T00:59:17.727Z,3.26
2023-05-24T01:00:17.744Z,3.28
2023-05-24T01:01:17.948Z,3.18
2023-05-24T01:02:17.795Z,3.18
2023-05-24T01:03:16.875Z,3.19
2023-05-24T01:04:17.804Z,3.17
2023-05-24T01:05:17.808Z,3.14
2023-05-24T01:06:17.822Z,3.18
2023-05-24T01:07:17.843Z,3.16
2023-05-24T01:08:16.857Z,3.14
2023-05-24T01:09:16.855Z,3.13
2023-05-24T01:10:17.059Z,3.10
2023-05-24T01:11:17.894Z,3.19
2023-05-24T01:12:17.909Z,3.11
2023-05-24T01:13:17.941Z,3.10
2023-05-24T01:14:17.951Z,3.10
2023-05-24T01:15:17.979Z,3.08
2023-05-24T01:16:18.040Z,3.07
2023-05-24T01:17:18.004Z,2.99
2023-05-24T01:18:18.013Z,3.01
2023-05-24T01:19:18.026Z,3.04
2023-05-24T01:20:18.155Z,2.98
2023-05-24T01:21:18.055Z,2.98
2023-05-24T01:22:18.061Z,2.98
2023-05-24T01:23:17.082Z,2.96
2023-05-24T01:24:17.088Z,2.99
2023-05-24T01:25:17.118Z,2.97
2023-05-24T01:26:17.137Z,2.92
2023-05-24T01:27:18.135Z,2.90
2023-05-24T01:28:18.150Z,2.94
2023-05-24T01:29:18.165Z,2.96
2023-05-24T01:30:18.173Z,2.93
2023-05-24T01:31:17.273Z,2.90
2023-05-24T01:32:18.205Z,2.87
2023-05-24T01:33:17.221Z,2.88
2023-05-24T01:34:17.259Z,2.85
2023-05-24T01:35:17.257Z,2.86
2023-05-24T01:36:17.271Z,2.86
2023-05-24T01:37:18.290Z,2.90
2023-05-24T01:38:17.328Z,2.81
2023-05-24T01:39:17.332Z,2.85
2023-05-24T01:40:17.351Z,2.76
2023-05-24T01:41:18.352Z,2.77
2023-05-24T01:42:18.396Z,2.80
2023-05-24T01:43:18.410Z,2.85
2023-05-24T01:44:18.417Z,2.76
2023-05-24T01:45:18.438Z,2.78
2023-05-24T01:46:18.472Z,2.72
2023-05-24T01:47:18.457Z,2.75
2023-05-24T01:48:18.494Z,2.71
2023-05-24T01:49:17.493Z,2.76
2023-05-24T01:50:18.512Z,2.70
2023-05-24T01:51:17.540Z,2.69
2023-05-24T01:52:18.614Z,2.72
2023-05-24T01:53:17.566Z,2.67
2023-05-24T01:54:18.590Z,2.72
2023-05-24T01:55:17.624Z,2.70
2023-05-24T01:56:17.614Z,2.67
2023-05-24T01:57:18.636Z,2.68
2023-05-24T01:58:18.697Z,2.69
2023-05-24T01:59:18.672Z,2.64
2023-05-24T02:00:17.695Z,2.69
2023-05-24T02:01:17.801Z,2.57
2023-05-24T02:02:18.748Z,2.63
2023-05-24T02:03:17.800Z,2.60
2023-05-24T02:04:18.791Z,2.58
2023-05-24T02:05:18.801Z,2.59
2023-05-24T02:06:17.839Z,2.63
2023-05-24T02:07:17.848Z,2.51
2023-05-24T02:08:18.866Z,2.56
2023-05-24T02:09:17.949Z,2.54
2023-05-24T02:10:17.890Z,2.58
2023-05-24T02:11:18.920Z,2.53
2023-05-24T02:12:17.929Z,2.57
2023-05-24T02:13:18.958Z,2.50
2023-05-24T02:14:19.009Z,2.51
2023-05-24T02:15:19.007Z,2.48
2023-05-24T02:16:19.070Z,2.48
2023-05-24T02:17:19.045Z,2.47
2023-05-24T02:18:19.059Z,2.46
2023-05-24T02:19:18.150Z,2.48
2023-05-24T02:20:18.145Z,2.50
2023-05-24T02:21:19.122Z,2.49
2023-05-24T02:22:19.149Z,2.47
2023-05-24T02:23:18.161Z,2.41
2023-05-24T02:24:19.243Z,2.46
2023-05-24T02:25:18.218Z,2.46
2023-05-24T02:26:18.235Z,2.46
2023-05-24T02:27:19.247Z,2.36
2023-05-24T02:28:19.287Z,2.39
2023-05-24T02:29:19.297Z,2.40
2023-05-24T02:30:18.342Z,2.37
2023-05-24T02:31:19.384Z,2.37
2023-05-24T02:32:19.390Z,2.41
2023-05-24T02:33:18.379Z,2.34
2023-05-24T02:34:19.419Z,2.37
2023-05-24T02:35:19.439Z,2.37
2023-05-24T02:36:19.453Z,2.31
2023-05-24T02:37:18.473Z,2.34
2023-05-24T02:38:19.498Z,2.31
2023-05-24T02:39:18.521Z,2.35
2023-05-24T02:40:19.528Z,2.33
2023-05-24T02:41:19.618Z,2.27
2023-05-24T02:42:18.601Z,2.32
2023-05-24T02:43:19.607Z,2.29
2023-05-24T02:44:18.612Z,2.31
2023-05-24T02:45:19.638Z,2.27
2023-05-24T02:46:19.720Z,2.27
2023-05-24T02:47:18.783Z,2.29
2023-05-24T02:48:18.698Z,2.27
2023-05-24T02:49:18.724Z,2.27
2023-05-24T02:50:19.754Z,2.23
2023-05-24T02:51:19.754Z,2.25
2023-05-24T02:52:19.777Z,2.25
2023-05-24T02:53:19.807Z,2.20
2023-05-24T02:54:19.812Z,2.22
2023-05-24T02:55:18.832Z,2.22
2023-05-24T02:56:19.879Z,2.20
2023-05-24T02:57:18.881Z,2.23
2023-05-24T02:58:19.906Z,2.19
2023-05-24T02:59:18.932Z,2.19
2023-05-24T03:00:19.951Z,2.18
2023-05-24T03:01:19.990Z,2.18
2023-05-24T03:02:20.034Z,2.20
2023-05-24T03:03:20.163Z,2.12
2023-05-24T03:04:19.056Z,2.13
2023-05-24T03:05:19.088Z,2.19
2023-05-24T03:06:19.107Z,2.16
2023-05-24T03:07:20.125Z,2.14
2023-05-24T03:08:19.173Z,2.16
2023-05-24T03:09:20.202Z,2.16
2023-05-24T03:10:20.214Z,2.09
2023-05-24T03:11:20.213Z,2.14
2023-05-24T03:12:19.245Z,2.15
2023-05-24T03:13:20.256Z,2.16
2023-05-24T03:14:20.279Z,2.09
2023-05-24T03:15:20.307Z,2.10
2023-05-24T03:16:19.372Z,2.09
2023-05-24T03:17:20.362Z,2.08
2023-05-24T03:18:20.413Z,2.07
2023-05-24T03:19:20.419Z,2.09
2023-05-24T03:20:19.466Z,2.08
2023-05-24T03:21:20.579Z,2.06
2023-05-24T03:22:19.481Z,2.07
2023-05-24T03:23:20.507Z,2.04
2023-05-24T03:24:20.547Z,2.09
2023-05-24T03:25:20.555Z,2.06
2023-05-24T03:26:20.634Z,2.04
2023-05-24T03:27:19.613Z,2.04
2023-05-24T03:28:20.637Z,2.02
2023-05-24T03:29:19.679Z,2.01
2023-05-24T03:30:20.709Z,2.05
2023-05-24T03:31:20.736Z,2.03
2023-05-24T03:32:20.741Z,1.99
2023-05-24T03:33:20.768Z,1.99
2023-05-24T03:34:20.813Z,1.99
2023-05-24T03:35:20.822Z,2.02
2023-05-24T03:36:20.841Z,2.02
2023-05-24T03:37:19.889Z,1.96
2023-05-24T03:38:20.915Z,2.00
2023-05-24T03:39:19.917Z,2.00
2023-05-24T03:40:20.949Z,2.01
2023-05-24T03:41:20.978Z,1.94
2023-05-24T03:42:20.989Z,1.98
2023-05-24T03:43:20.022Z,2.00
2023-05-24T03:44:20.047Z,1.95
2023-05-24T03:45:34.490Z,1.95
2023-05-24T03:46:21.099Z,1.96
2023-05-24T03:47:21.090Z,1.96
2023-05-24T03:48:20.057Z,1.97
2023-05-24T03:49:20.047Z,1.97
2023-05-24T03:50:20.056Z,1.95
2023-05-24T03:51:21.023Z,1.94
2023-05-24T03:52:20.036Z,1.95
2023-05-24T03:53:21.605Z,1.94
2023-05-24T03:54:20.007Z,1.94
2023-05-24T03:55:21.001Z,1.94
2023-05-24T03:56:19.975Z,1.95
2023-05-24T03:57:19.977Z,1.86
2023-05-24T03:58:20.966Z,1.91
2023-05-24T03:59:20.951Z,1.90
2023-05-24T04:00:20.949Z,1.97
2023-05-24T04:01:32.636Z,1.89
2023-05-24T04:02:20.959Z,1.89
2023-05-24T04:03:20.107Z,1.90
2023-05-24T04:04:21.015Z,1.91
2023-05-24T04:05:20.911Z,1.91
2023-05-24T04:06:20.921Z,1.93
2023-05-24T04:07:20.903Z,1.93
2023-05-24T04:08:20.898Z,1.89
2023-05-24T04:09:20.893Z,1.90
2023-05-24T04:10:20.878Z,1.87
2023-05-24T04:11:20.854Z,1.87
2023-05-24T04:12:19.858Z,1.84
2023-05-24T04:13:20.841Z,1.84
2023-05-24T04:14:20.848Z,1.81
2023-05-24T04:15:19.842Z,1.81
2023-05-24T04:16:20.836Z,1.81
2023-05-24T04:17:20.981Z,1.81
2023-05-24T04:18:20.934Z,1.83
2023-05-24T04:19:20.805Z,1.81
2023-05-24T04:20:20.844Z,1.80
2023-05-24T04:21:19.805Z,1.78
2023-05-24T04:22:20.813Z,1.81
2023-05-24T04:23:20.769Z,1.78
2023-05-24T04:24:20.777Z,1.80
2023-05-24T04:25:19.771Z,1.80
2023-05-24T04:26:20.743Z,1.80
2023-05-24T04:27:20.743Z,1.76
2023-05-24T04:28:20.727Z,1.81
2023-05-24T04:29:19.737Z,1.76
2023-05-24T04:30:19.713Z,1.82
2023-05-24T04:31:19.722Z,1.77
2023-05-24T04:32:19.712Z,1.74
2023-05-24T04:33:19.693Z,1.71
2023-05-24T04:34:19.698Z,1.73
2023-05-24T04:35:19.678Z,1.77
2023-05-24T04:36:20.667Z,1.77
2023-05-24T04:37:20.669Z,1.70
2023-05-24T04:38:21.836Z,1.74
2023-05-24T04:39:19.665Z,1.70
2023-05-24T04:40:20.656Z,1.72
2023-05-24T04:41:20.658Z,1.69
2023-05-24T04:42:20.707Z,1.76
2023-05-24T04:43:20.725Z,1.72
2023-05-24T04:44:20.745Z,1.72
2023-05-24T04:45:19.763Z,1.72
2023-05-24T04:46:20.824Z,1.67
2023-05-24T04:47:19.831Z,1.69
2023-05-24T04:48:20.863Z,1.66
2023-05-24T04:49:20.908Z,1.68
2023-05-24T04:50:19.940Z,1.68
2023-05-24T04:51:20.990Z,1.69
2023-05-24T04:52:21.013Z,1.69
2023-05-24T04:53:21.041Z,1.67
2023-05-24T04:54:21.100Z,1.67
2023-05-24T04:55:21.109Z,1.69
2023-05-24T04:56:20.133Z,1.67
2023-05-24T04:57:21.160Z,1.67
2023-05-24T04:58:21.226Z,1.62
2023-05-24T04:59:20.232Z,1.65
2023-05-24T05:00:21.263Z,1.62
2023-05-24T05:01:21.343Z,1.64
2023-05-24T05:02:21.502Z,1.65
2023-05-24T05:03:21.561Z,1.67
2023-05-24T05:04:21.386Z,1.60
2023-05-24T05:05:21.403Z,1.62
2023-05-24T05:06:20.456Z,1.62
2023-05-24T05:07:21.505Z,1.65
2023-05-24T05:08:20.508Z,1.60
2023-05-24T05:09:21.565Z,1.60
2023-05-24T05:10:22.401Z,1.58
2023-05-24T05:11:21.560Z,1.61
2023-05-24T05:12:21.553Z,1.62
2023-05-24T05:13:21.557Z,1.64
2023-05-24T05:14:20.540Z,1.59
2023-05-24T05:15:20.533Z,1.59
2023-05-24T05:16:21.560Z,1.57
2023-05-24T05:17:21.515Z,1.57
2023-05-24T05:18:21.515Z,1.60
2023-05-24T05:19:20.513Z,1.58
2023-05-24T05:20:20.554Z,1.57
2023-05-24T05:21:20.503Z,1.58
2023-05-24T05:22:21.493Z,1.56
2023-05-24T05:23:20.484Z,1.62
2023-05-24T05:24:20.776Z,1.58
2023-05-24T05:25:21.478Z,1.59
2023-05-24T05:26:20.488Z,1.54
2023-05-24T05:27:20.460Z,1.57
2023-05-24T05:28:20.451Z,1.54
2023-05-24T05:29:23.519Z,1.60
2023-05-24T05:30:21.447Z,1.58
2023-05-24T05:31:20.422Z,1.60
2023-05-24T05:32:20.461Z,1.57
2023-05-24T05:33:21.494Z,1.53
2023-05-24T05:34:20.412Z,1.54
2023-05-24T05:35:20.452Z,1.54
2023-05-24T05:36:21.389Z,1.56
2023-05-24T05:37:21.374Z,1.55
2023-05-24T05:38:21.383Z,1.53
2023-05-24T05:39:21.370Z,1.51
2023-05-24T05:40:20.386Z,1.51
2023-05-24T05:41:21.349Z,1.53
2023-05-24T05:42:21.366Z,1.51
2023-05-24T05:43:21.328Z,1.51
2023-05-24T05:44:21.323Z,1.50
2023-05-24T05:45:20.317Z,1.52
2023-05-24T05:46:21.351Z,1.49
2023-05-24T05:47:20.324Z,1.51
2023-05-24T05:48:21.307Z,1.48
2023-05-24T05:49:21.301Z,1.49
2023-05-24T05:50:21.293Z,1.47
2023-05-24T05:51:21.279Z,1.48
2023-05-24T05:52:21.292Z,1.48
2023-05-24T05:53:20.285Z,1.50
2023-05-24T05:54:21.257Z,1.51
2023-05-24T05:55:20.235Z,1.49
2023-05-24T05:56:20.237Z,1.45
2023-05-24T05:57:21.245Z,1.45
2023-05-24T05:58:21.244Z,1.44
2023-05-24T05:59:21.224Z,1.49
2023-05-24T06:00:20.208Z,1.44
2023-05-24T06:01:21.201Z,1.45
2023-05-24T06:02:20.251Z,1.43
2023-05-24T06:03:21.341Z,1.44
2023-05-24T06:04:21.227Z,1.46
2023-05-24T06:05:20.187Z,1.47
2023-05-24T06:06:21.160Z,1.48
2023-05-24T06:07:20.174Z,1.51
2023-05-24T06:08:21.194Z,1.53
2023-05-24T06:09:21.152Z,1.51
2023-05-24T06:10:21.152Z,1.58
2023-05-24T06:11:21.159Z,1.59
2023-05-24T06:12:20.160Z,1.60
2023-05-24T06:13:21.163Z,1.63
2023-05-24T06:14:21.197Z,1.63
2023-05-24T06:15:21.157Z,1.70
2023-05-24T06:16:21.254Z,1.77
2023-05-24T06:17:21.286Z,1.83
2023-05-24T06:18:21.301Z,1.86
2023-05-24T06:19:21.362Z,1.93
2023-05-24T06:20:20.502Z,2.03
2023-05-24T06:21:20.460Z,2.06
2023-05-24T06:22:20.536Z,2.09
2023-05-24T06:23:21.600Z,2.07
2023-05-24T06:24:20.822Z,2.13
2023-05-24T06:25:21.701Z,2.13
2023-05-24T06:26:20.729Z,2.20
2023-05-24T06:27:21.795Z,2.18
2023-05-24T06:28:21.817Z,2.27
2023-05-24T06:29:22.070Z,2.25
2023-05-24T06:30:21.984Z,2.32
2023-05-24T06:31:20.953Z,2.35
2023-05-24T06:32:20.997Z,2.41
2023-05-24T06:33:21.040Z,2.35
2023-05-24T06:34:22.063Z,2.43
2023-05-24T06:35:21.108Z,2.53
2023-05-24T06:36:22.147Z,2.56
2023-05-24T06:37:22.191Z,2.53
2023-05-24T06:38:21.228Z,2.49
2023-05-24T06:39:22.284Z,2.57
2023-05-24T06:40:22.319Z,2.59
2023-05-24T06:41:22.376Z,2.67
2023-05-24T06:42:21.426Z,2.69
2023-05-24T06:43:21.452Z,2.75
2023-05-24T06:44:25.102Z,2.73
2023-05-24T06:45:22.502Z,2.96
2023-05-24T06:46:22.520Z,3.09
2023-05-24T06:47:22.705Z,3.14
2023-05-24T06:48:22.573Z,3.08
2023-05-24T06:49:22.479Z,3.10
2023-05-24T06:50:21.476Z,3.05
2023-05-24T06:51:22.467Z,3.17
2023-05-24T06:52:22.443Z,3.15
2023-05-24T06:53:22.482Z,3.19
2023-05-24T06:54:21.622Z,3.20
2023-05-24T06:55:22.427Z,3.17
2023-05-24T06:56:22.426Z,3.18
2023-05-24T06:57:22.427Z,3.27
2023-05-24T06:58:22.403Z,3.31
2023-05-24T06:59:22.648Z,3.20
2023-05-24T07:00:22.403Z,3.30
2023-05-24T07:01:22.412Z,3.36
2023-05-24T07:02:21.529Z,3.36
2023-05-24T07:03:22.394Z,3.48
2023-05-24T07:04:22.429Z,3.49
2023-05-24T07:05:21.362Z,3.40
2023-05-24T07:06:22.383Z,3.53
2023-05-24T07:07:22.346Z,3.58
2023-05-24T07:08:21.334Z,3.57
2023-05-24T07:09:22.351Z,3.60
2023-05-24T07:10:21.327Z,3.67
2023-05-24T07:11:22.348Z,3.71
2023-05-24T07:12:21.320Z,3.69
2023-05-24T07:13:21.332Z,3.68
2023-05-24T07:14:21.362Z,3.74
2023-05-24T07:15:22.415Z,3.90
2023-05-24T07:16:21.466Z,3.89
2023-05-24T07:17:22.502Z,3.99
2023-05-24T07:18:22.602Z,3.96
2023-05-24T07:19:22.635Z,4.01
2023-05-24T07:20:21.696Z,3.94
2023-05-24T07:21:22.677Z,3.81
2023-05-24T07:22:21.679Z,3.78
2023-05-24T07:23:21.760Z,3.72
2023-05-24T07:24:21.756Z,3.75
2023-05-24T07:25:21.785Z,3.78
2023-05-24T07:26:21.855Z,3.75
2023-05-24T07:27:21.870Z,3.76
2023-05-24T07:28:22.921Z,3.72
2023-05-24T07:29:22.997Z,3.79
2023-05-24T07:30:31.588Z,3.79
2023-05-24T07:31:22.992Z,3.80
2023-05-24T07:32:22.002Z,3.85
2023-05-24T07:33:23.045Z,3.87
2023-05-24T07:34:23.017Z,3.87
2023-05-24T07:35:22.974Z,3.86
2023-05-24T07:36:22.947Z,3.86
2023-05-24T07:37:21.960Z,3.87
2023-05-24T07:38:22.944Z,3.89
2023-05-24T07:39:22.941Z,3.83
2023-05-24T07:40:21.917Z,3.88
2023-05-24T07:41:21.914Z,3.87
2023-05-24T07:42:22.936Z,3.97
2023-05-24T07:43:22.907Z,3.65
2023-05-24T07:44:21.923Z,3.26
2023-05-24T07:45:22.882Z,3.65
2023-05-24T07:46:21.906Z,2.93
2023-05-24T07:47:21.869Z,2.56
2023-05-24T07:48:21.868Z,2.65
2023-05-24T07:49:23.153Z,2.94
2023-05-24T07:50:22.930Z,3.15
2023-05-24T07:51:22.851Z,3.09
2023-05-24T07:52:21.837Z,3.04
2023-05-24T07:53:21.825Z,3.13
2023-05-24T07:54:22.825Z,2.96
2023-05-24T07:55:22.828Z,2.92
2023-05-24T07:56:22.812Z,2.94
2023-05-24T07:57:22.803Z,3.07
2023-05-24T07:58:22.790Z,3.04
2023-05-24T07:59:21.778Z,2.82
2023-05-24T08:00:22.909Z,2.78
2023-05-24T08:01:22.769Z,2.58
2023-05-24T08:02:21.825Z,2.65
2023-05-24T08:03:21.947Z,2.68
2023-05-24T08:04:22.741Z,2.66
2023-05-24T08:05:22.737Z,2.59
2023-05-24T08:06:22.794Z,2.31
2023-05-24T08:07:21.887Z,2.13
2023-05-24T08:08:22.743Z,2.14
2023-05-24T08:09:22.703Z,1.94
2023-05-24T08:10:21.748Z,2.01
2023-05-24T08:11:21.691Z,1.91
2023-05-24T08:12:22.724Z,1.81
2023-05-24T08:13:22.686Z,1.81
2023-05-24T08:14:22.677Z,1.91
2023-05-24T08:15:22.697Z,1.78
2023-05-24T08:16:21.713Z,1.78
2023-05-24T08:17:22.742Z,1.79
2023-05-24T08:18:21.715Z,1.77
2023-05-24T08:19:21.703Z,1.88
2023-05-24T08:20:21.768Z,1.87
2023-05-24T08:21:22.861Z,2.00
2023-05-24T08:22:22.912Z,1.91
2023-05-24T08:23:22.803Z,1.74
2023-05-24T08:24:22.800Z,1.63
2023-05-24T08:25:22.805Z,1.55
2023-05-24T08:26:22.822Z,1.36
2023-05-24T08:27:22.841Z,1.37
2023-05-24T08:28:22.903Z,1.27
2023-05-24T08:29:21.880Z,1.24
2023-05-24T08:30:21.988Z,1.25
2023-05-24T08:31:21.959Z,1.27
2023-05-24T08:32:22.964Z,1.21
2023-05-24T08:33:22.950Z,1.26
2023-05-24T08:34:22.969Z,1.33
2023-05-24T08:35:22.349Z,1.31
2023-05-24T08:36:21.981Z,1.35
2023-05-24T08:37:23.008Z,1.16
2023-05-24T08:38:23.096Z,1.11
2023-05-24T08:39:23.048Z,1.10
2023-05-24T08:40:22.078Z,1.05
2023-05-24T08:41:23.114Z,0.91
2023-05-24T08:42:23.163Z,0.99
2023-05-24T08:43:23.169Z,1.08
2023-05-24T08:44:22.222Z,0.94
2023-05-24T08:45:23.677Z,0.92
2023-05-24T08:46:23.337Z,0.89
2023-05-24T08:47:23.366Z,0.83
2023-05-24T08:48:22.465Z,0.88
2023-05-24T08:49:22.411Z,0.84
2023-05-24T08:50:22.449Z,0.83
2023-05-24T08:51:23.474Z,0.89
2023-05-24T08:52:23.497Z,0.77
2023-05-24T08:53:23.526Z,0.72
2023-05-24T08:54:22.803Z,0.70
2023-05-24T08:55:23.679Z,0.69
2023-05-24T08:56:23.663Z,0.63
2023-05-24T08:57:23.728Z,0.58
2023-05-24T08:58:23.757Z,0.59
2023-05-24T08:59:23.814Z,0.56
2023-05-24T09:00:23.856Z,0.61
2023-05-24T09:01:22.916Z,0.56
2023-05-24T09:02:22.961Z,0.57
2023-05-24T09:03:24.227Z,0.55
2023-05-24T09:04:23.190Z,0.61
2023-05-24T09:05:23.074Z,0.68
2023-05-24T09:06:24.096Z,0.68
2023-05-24T09:07:24.174Z,0.60
2023-05-24T09:08:24.169Z,0.62
2023-05-24T09:09:23.239Z,0.63
2023-05-24T09:10:24.316Z,0.59
2023-05-24T09:11:23.255Z,0.59
2023-05-24T09:12:35.733Z,0.59
2023-05-24T09:13:24.307Z,0.59
2023-05-24T09:14:23.279Z,0.58
2023-05-24T09:15:23.285Z,0.59
2023-05-24T09:16:24.299Z,0.52
2023-05-24T09:17:23.257Z,0.55
2023-05-24T09:18:23.323Z,0.50
2023-05-24T09:19:23.252Z,0.52
2023-05-24T09:20:24.293Z,0.56
2023-05-24T09:21:24.222Z,0.57
2023-05-24T09:22:23.227Z,0.52
2023-05-24T09:23:23.231Z,0.50
2023-05-24T09:24:24.209Z,0.52
2023-05-24T09:25:24.237Z,0.57
2023-05-24T09:26:24.352Z,0.59
2023-05-24T09:27:24.272Z,0.59
2023-05-24T09:28:24.304Z,0.61
2023-05-24T09:29:24.322Z,0.61
2023-05-24T09:30:23.380Z,0.57
2023-05-24T09:31:24.416Z,0.56
2023-05-24T09:32:23.458Z,0.51
2023-05-24T09:33:23.465Z,0.53
2023-05-24T09:34:24.504Z,0.52
2023-05-24T09:35:24.561Z,0.48
2023-05-24T09:36:24.622Z,0.51
2023-05-24T09:37:28.266Z,0.54
2023-05-24T09:38:24.685Z,0.54
2023-05-24T09:39:23.655Z,0.52
2023-05-24T09:40:23.655Z,0.54
2023-05-24T09:41:23.657Z,0.55
2023-05-24T09:42:24.751Z,0.51
2023-05-24T09:43:26.258Z,0.55
2023-05-24T09:44:23.646Z,0.51
2023-05-24T09:45:23.616Z,0.56
2023-05-24T09:46:23.652Z,0.58
2023-05-24T09:47:24.613Z,0.52
2023-05-24T09:48:24.584Z,0.53
2023-05-24T09:49:24.578Z,0.52
2023-05-24T09:50:23.690Z,0.54
2023-05-24T09:51:24.713Z,0.50
2023-05-24T09:52:24.560Z,0.57
2023-05-24T09:53:24.571Z,0.61
2023-05-24T09:54:23.559Z,0.58
2023-05-24T09:55:23.570Z,0.52
2023-05-24T09:56:24.540Z,0.59
2023-05-24T09:57:23.532Z,0.61
2023-05-24T09:58:23.585Z,0.66
2023-05-24T09:59:23.525Z,0.64
2023-05-24T10:00:23.706Z,0.70
2023-05-24T10:01:24.560Z,0.75
2023-05-24T10:02:24.502Z,0.70
2023-05-24T10:03:24.614Z,0.67
2023-05-24T10:04:24.600Z,0.68
2023-05-24T10:05:23.493Z,0.71
2023-05-24T10:06:24.474Z,0.72
2023-05-24T10:07:24.477Z,0.75
2023-05-24T10:08:25.196Z,0.79
2023-05-24T10:09:24.442Z,0.82
2023-05-24T10:10:23.483Z,0.82
2023-05-24T10:11:24.448Z,0.90
2023-05-24T10:12:24.426Z,0.87
2023-05-24T10:13:24.431Z,0.87
2023-05-24T10:14:23.447Z,0.85
2023-05-24T10:15:24.459Z,0.84
2023-05-24T10:16:23.423Z,0.89
2023-05-24T10:17:24.473Z,0.83
2023-05-24T10:18:24.384Z,0.69
2023-05-24T10:19:24.390Z,0.69
2023-05-24T10:20:24.481Z,0.73
2023-05-24T10:21:24.207Z,0.70
2023-05-24T10:22:24.357Z,0.68
2023-05-24T10:23:24.340Z,0.66
2023-05-24T10:24:24.336Z,0.72
2023-05-24T10:25:23.324Z,0.69
2023-05-24T10:26:24.321Z,0.63
2023-05-24T10:27:23.316Z,0.66
2023-05-24T10:28:23.317Z,0.64
2023-05-24T10:29:24.287Z,0.69
2023-05-24T10:30:24.325Z,0.65
2023-05-24T10:31:23.368Z,0.70
2023-05-24T10:32:24.384Z,0.72
2023-05-24T10:33:23.263Z,0.69
2023-05-24T10:34:23.272Z,0.71
2023-05-24T10:35:24.252Z,0.70
2023-05-24T10:36:24.238Z,0.70
2023-05-24T10:37:23.249Z,0.73
2023-05-24T10:38:24.262Z,0.68
2023-05-24T10:39:24.277Z,0.70
2023-05-24T10:40:24.312Z,0.64
2023-05-24T10:41:24.331Z,0.61
2023-05-24T10:42:24.386Z,0.56
2023-05-24T10:43:24.451Z,0.60
2023-05-24T10:44:23.468Z,0.63
2023-05-24T10:45:24.539Z,0.65
2023-05-24T10:46:24.660Z,0.71
2023-05-24T10:47:23.647Z,0.80
2023-05-24T10:48:24.596Z,0.92
2023-05-24T10:49:24.593Z,1.01
2023-05-24T10:50:24.608Z,1.06
2023-05-24T10:51:24.651Z,1.15
2023-05-24T10:52:24.699Z,1.19
2023-05-24T10:53:24.767Z,1.26
2023-05-24T10:54:23.824Z,1.25
2023-05-24T10:55:24.874Z,1.31
2023-05-24T10:56:24.940Z,1.31
2023-05-24T10:57:24.964Z,1.37
2023-05-24T10:58:23.983Z,1.40
2023-05-24T10:59:24.018Z,1.46
2023-05-24T11:00:34.651Z,1.55
2023-05-24T11:01:25.245Z,1.55
2023-05-24T11:02:24.229Z,1.57
2023-05-24T11:03:24.056Z,1.61
2023-05-24T11:04:24.025Z,1.68
2023-05-24T11:05:25.064Z,1.76
2023-05-24T11:06:24.020Z,1.80
2023-05-24T11:07:25.005Z,1.85
2023-05-24T11:08:23.998Z,1.84
2023-05-24T11:09:24.992Z,1.92
2023-05-24T11:10:25.047Z,1.98
2023-05-24T11:11:27.417Z,1.96
2023-05-24T11:12:24.968Z,1.97
2023-05-24T11:13:24.971Z,1.98
2023-05-24T11:14:24.976Z,2.02
2023-05-24T11:15:24.970Z,2.19
2023-05-24T11:16:25.011Z,2.68
2023-05-24T11:17:24.986Z,3.04
2023-05-24T11:18:24.997Z,3.36
2023-05-24T11:19:24.915Z,3.49
2023-05-24T11:20:25.017Z,3.36
2023-05-24T11:21:24.963Z,3.30
2023-05-24T11:22:24.973Z,3.25
2023-05-24T11:23:23.994Z,3.12
2023-05-24T11:24:24.005Z,3.13
2023-05-24T11:25:24.010Z,3.01
2023-05-24T11:26:24.016Z,2.99
2023-05-24T11:27:25.047Z,2.95
2023-05-24T11:28:25.097Z,2.94
2023-05-24T11:29:25.059Z,3.02
2023-05-24T11:30:24.059Z,3.10
2023-05-24T11:31:25.095Z,3.11
2023-05-24T11:32:25.835Z,3.10
2023-05-24T11:33:24.078Z,3.09
2023-05-24T11:34:24.136Z,3.13
2023-05-24T11:35:25.058Z,3.11
2023-05-24T11:36:25.070Z,3.22
2023-05-24T11:38:25.163Z,3.14
2023-05-24T11:39:25.055Z,3.14
2023-05-24T11:40:25.079Z,3.16
2023-05-24T11:41:24.060Z,3.15
2023-05-24T11:42:24.070Z,3.24
2023-05-24T11:43:25.071Z,3.26
2023-05-24T11:44:25.052Z,3.29
2023-05-24T11:45:25.064Z,3.36
2023-05-24T11:46:25.143Z,3.31
2023-05-24T11:47:24.100Z,3.34
2023-05-24T11:48:25.033Z,3.33
2023-05-24T11:49:24.023Z,3.41
2023-05-24T11:50:26.616Z,3.44
2023-05-24T11:51:24.029Z,3.45
2023-05-24T11:52:24.023Z,3.46
2023-05-24T11:53:25.020Z,3.45
2023-05-24T11:54:25.013Z,3.45
2023-05-24T11:55:24.992Z,3.45
2023-05-24T11:56:24.997Z,3.55
2023-05-24T11:57:24.980Z,3.51
2023-05-24T11:58:24.965Z,3.57
2023-05-24T11:59:24.955Z,3.63
2023-05-24T12:00:23.961Z,3.59
2023-05-24T12:01:24.967Z,3.58
2023-05-24T12:02:25.006Z,3.56
2023-05-24T12:03:24.098Z,3.65
2023-05-24T12:04:23.988Z,3.58
2023-05-24T12:05:24.933Z,3.66
2023-05-24T12:06:24.946Z,3.77
2023-05-24T12:07:24.906Z,3.91
2023-05-24T12:08:23.892Z,3.92
2023-05-24T12:09:24.926Z,3.84
2023-05-24T12:10:24.895Z,3.90
2023-05-24T12:11:23.888Z,3.97
2023-05-24T12:12:30.798Z,4.05
2023-05-24T12:13:24.882Z,4.06
2023-05-24T12:14:24.865Z,4.06
2023-05-24T12:15:24.844Z,4.08
2023-05-24T12:16:24.949Z,4.10
2023-05-24T12:17:24.878Z,4.12
2023-05-24T12:18:25.220Z,4.18
2023-05-24T12:20:24.818Z,4.29
2023-05-24T12:21:24.803Z,4.34
2023-05-24T12:22:24.823Z,4.41
2023-05-24T12:23:23.793Z,4.52
2023-05-24T12:24:24.799Z,4.46
2023-05-24T12:25:23.784Z,4.57
2023-05-24T12:26:24.774Z,4.61
2023-05-24T12:27:24.758Z,4.59
2023-05-24T12:28:23.756Z,4.61
2023-05-24T12:29:23.741Z,4.50
2023-05-24T12:30:23.734Z,4.60
2023-05-24T12:31:23.790Z,4.74
2023-05-24T12:32:24.785Z,4.66
2023-05-24T12:33:24.729Z,4.84
2023-05-24T12:34:23.716Z,4.69
2023-05-24T12:35:24.707Z,4.64
2023-05-24T12:36:24.693Z,4.84
2023-05-24T12:37:23.701Z,4.79
2023-05-24T12:38:24.721Z,4.75
2023-05-24T12:39:23.672Z,4.82
2023-05-24T12:40:23.678Z,5.05
2023-05-24T12:41:23.670Z,5.07
2023-05-24T12:42:24.652Z,5.14
2023-05-24T12:43:24.648Z,5.17
2023-05-24T12:44:24.652Z,5.17
2023-05-24T12:45:24.663Z,5.15
2023-05-24T12:46:23.761Z,5.22
2023-05-24T12:47:23.862Z,5.30
2023-05-24T12:48:23.806Z,5.30
2023-05-24T12:49:23.832Z,5.37
2023-05-24T12:50:24.897Z,5.40
2023-05-24T12:51:25.114Z,5.48
2023-05-24T12:52:24.718Z,5.36
2023-05-24T12:53:24.009Z,5.40
2023-05-24T12:54:25.120Z,5.42
2023-05-24T12:55:24.101Z,5.53
2023-05-24T12:56:25.166Z,5.42
2023-05-24T12:57:25.211Z,5.48
2023-05-24T12:58:25.252Z,5.50
2023-05-24T12:59:25.410Z,5.49
2023-05-24T13:00:24.340Z,5.49
2023-05-24T13:01:25.437Z,5.49
2023-05-24T13:02:24.476Z,5.44
2023-05-24T13:03:25.470Z,5.39
2023-05-24T13:04:25.524Z,5.32
2023-05-24T13:05:25.615Z,5.38
2023-05-24T13:06:25.620Z,5.28
2023-05-24T13:07:24.654Z,5.23
2023-05-24T13:08:24.701Z,5.23
2023-05-24T13:09:25.924Z,5.22
2023-05-24T13:10:24.835Z,5.18
2023-05-24T13:11:25.855Z,5.12
2023-05-24T13:12:24.901Z,5.23
2023-05-24T13:13:25.948Z,5.18
2023-05-24T13:14:26.026Z,5.13
2023-05-24T13:15:25.034Z,5.16
2023-05-24T13:16:26.124Z,5.06
2023-05-24T13:17:26.148Z,5.01
2023-05-24T13:18:26.163Z,4.94
2023-05-24T13:19:25.199Z,4.77
2023-05-24T13:20:26.450Z,4.70